Time;durP1;ratioP1;P1;durP2;ratioP2;P2;SDS_P1;SDS_P2;PMS_P1;PMS_P2;Temp;Humidity;BMP_temperature;BMP_pressure;BME280_temperature;BME280_humidity;BME280_pressure;Samples;Min_cycle;Max_cycle;Signal;HPM_P1;HPM_P2
2022/02/14 00:03:06;;;;;;;13.55;5.70;;;2.40;99.90;;;;;;10379543;28;20103;-62
2022/02/14 00:08:08;;;;;;;12.85;5.03;;;2.50;99.90;;;;;;10379010;28;20115;-61
2022/02/14 00:13:10;;;;;;;21.60;7.55;;;2.60;99.90;;;;;;10386564;28;20471;-61
2022/02/14 00:18:12;;;;;;;19.38;8.10;;;2.60;99.90;;;;;;10384800;28;20154;-63
2022/02/14 00:23:13;;;;;;;10.43;4.60;;;2.60;99.90;;;;;;10380132;28;20554;-61
2022/02/14 00:28:16;;;;;;;15.00;5.30;;;2.50;99.90;;;;;;10384810;28;20115;-61
2022/02/14 00:33:18;;;;;;;12.85;4.75;;;2.50;99.90;;;;;;10380225;28;20057;-61
2022/02/14 00:38:20;;;;;;;11.77;4.65;;;2.50;99.90;;;;;;10381308;28;20173;-62
2022/02/14 00:43:21;;;;;;;9.02;4.50;;;2.50;99.90;;;;;;10383734;28;20041;-62
2022/02/14 00:48:24;;;;;;;9.95;4.97;;;2.50;99.90;;;;;;10379434;28;20096;-62
2022/02/14 00:53:26;;;;;;;8.65;3.97;;;2.50;99.90;;;;;;10383677;28;20111;-61
2022/02/14 00:58:27;;;;;;;9.38;4.35;;;2.50;99.90;;;;;;10380965;28;20049;-61
2022/02/14 01:03:29;;;;;;;8.73;4.13;;;2.60;99.90;;;;;;10372200;28;20496;-60
2022/02/14 01:08:31;;;;;;;8.10;3.67;;;2.60;99.90;;;;;;10377473;28;20057;-61
2022/02/14 01:13:33;;;;;;;12.80;3.80;;;2.50;99.90;;;;;;10379261;28;20496;-60
2022/02/14 01:18:34;;;;;;;7.82;3.85;;;2.50;99.90;;;;;;10380210;28;20496;-60
2022/02/14 01:23:36;;;;;;;7.18;3.95;;;2.50;99.90;;;;;;10373082;28;20042;-60
2022/02/14 01:28:38;;;;;;;8.38;4.32;;;2.50;99.90;;;;;;10366155;28;20046;-60
2022/02/14 01:33:40;;;;;;;11.52;5.55;;;2.40;99.90;;;;;;10381670;28;20049;-60
2022/02/14 01:38:42;;;;;;;11.75;4.15;;;2.20;99.90;;;;;;10379914;28;20100;-60
2022/02/14 01:43:44;;;;;;;6.22;3.38;;;2.20;99.90;;;;;;10381348;28;20046;-60
2022/02/14 01:48:46;;;;;;;9.27;4.03;;;2.10;99.90;;;;;;10381902;28;20126;-63
2022/02/14 01:53:49;;;;;;;9.77;4.72;;;2.00;99.90;;;;;;10376920;28;20064;-61
2022/02/14 01:58:51;;;;;;;9.57;4.10;;;1.80;99.90;;;;;;10381347;28;20137;-61
2022/02/14 02:03:52;;;;;;;8.80;4.45;;;1.70;99.90;;;;;;10382172;28;20385;-61
2022/02/14 02:08:54;;;;;;;10.65;4.60;;;1.60;99.90;;;;;;10379870;28;20077;-60
2022/02/14 02:13:56;;;;;;;13.52;4.68;;;1.60;99.90;;;;;;10379438;28;20112;-61
2022/02/14 02:18:57;;;;;;;9.90;3.70;;;1.50;99.90;;;;;;10378717;28;20103;-59
2022/02/14 02:24:00;;;;;;;9.75;4.05;;;1.40;99.90;;;;;;10377604;28;20152;-61
2022/02/14 02:29:02;;;;;;;6.57;3.38;;;1.30;99.90;;;;;;10382403;28;20099;-60
2022/02/14 02:34:06;;;;;;;8.18;3.95;;;1.30;99.90;;;;;;10384824;28;20049;-59
2022/02/14 02:39:07;;;;;;;8.55;4.47;;;1.30;99.90;;;;;;10387540;28;20045;-61
2022/02/14 02:44:10;;;;;;;7.75;3.72;;;1.30;99.90;;;;;;10376656;28;20057;-60
2022/02/14 02:49:13;;;;;;;9.45;4.07;;;1.20;99.90;;;;;;10388915;28;20501;-61
2022/02/14 02:54:17;;;;;;;6.18;3.70;;;1.20;99.90;;;;;;10384773;28;20478;-61
2022/02/14 02:59:21;;;;;;;7.72;3.85;;;1.10;99.90;;;;;;10390680;28;20099;-61
2022/02/14 03:04:22;;;;;;;9.13;3.50;;;1.20;99.90;;;;;;10383962;28;20038;-61
2022/02/14 03:09:24;;;;;;;7.32;3.42;;;1.10;99.90;;;;;;10385843;28;20111;-58
2022/02/14 03:14:26;;;;;;;7.68;3.42;;;1.10;99.90;;;;;;10375013;28;20119;-60
2022/02/14 03:19:27;;;;;;;8.77;3.75;;;1.20;99.90;;;;;;10385804;28;20077;-60
2022/02/14 03:24:30;;;;;;;8.15;3.67;;;1.20;99.90;;;;;;10381117;28;20061;-60
2022/02/14 03:29:32;;;;;;;7.38;3.28;;;1.20;99.90;;;;;;10385885;28;20061;-60
2022/02/14 03:34:34;;;;;;;9.55;3.22;;;1.30;99.90;;;;;;10388031;28;20049;-60
2022/02/14 03:39:36;;;;;;;8.07;3.30;;;1.30;99.90;;;;;;10384610;28;20100;-61
2022/02/14 03:44:38;;;;;;;9.80;3.10;;;1.30;99.90;;;;;;10382485;28;20153;-60
2022/02/14 03:49:40;;;;;;;8.55;3.10;;;1.20;99.90;;;;;;10388958;28;20061;-59
2022/02/14 03:54:41;;;;;;;6.40;2.88;;;1.20;99.90;;;;;;10380647;28;20496;-60
2022/02/14 03:59:43;;;;;;;5.75;2.83;;;1.10;99.90;;;;;;10382399;28;20106;-60
2022/02/14 04:04:45;;;;;;;9.73;3.33;;;1.10;99.90;;;;;;10384990;28;20049;-61
2022/02/14 04:09:46;;;;;;;7.43;3.40;;;1.00;99.90;;;;;;10377793;28;20053;-61
2022/02/14 04:14:48;;;;;;;7.70;2.85;;;1.00;99.90;;;;;;10383738;28;20081;-60
2022/02/14 04:19:50;;;;;;;6.30;2.20;;;0.90;99.90;;;;;;10392214;28;20130;-61
2022/02/14 04:24:52;;;;;;;6.32;3.47;;;0.80;99.90;;;;;;10382874;28;20044;-61
2022/02/14 04:29:54;;;;;;;11.30;3.22;;;0.80;99.90;;;;;;10383519;28;20103;-60
2022/02/14 04:34:55;;;;;;;5.88;2.63;;;0.70;99.90;;;;;;10377525;28;24132;-61
2022/02/14 04:39:57;;;;;;;6.72;2.58;;;0.70;99.90;;;;;;10383754;28;20437;-60
2022/02/14 04:45:01;;;;;;;7.25;2.85;;;0.60;99.90;;;;;;10395506;28;20060;-62
2022/02/14 04:50:03;;;;;;;6.47;2.78;;;0.60;99.90;;;;;;10379398;28;20085;-60
2022/02/14 04:55:06;;;;;;;8.25;2.53;;;0.60;99.90;;;;;;10384985;28;20045;-60
2022/02/14 05:00:11;;;;;;;5.95;2.58;;;0.50;99.90;;;;;;10377535;28;20053;-60
2022/02/14 05:05:13;;;;;;;4.90;2.67;;;0.50;99.90;;;;;;10381674;28;20564;-60
2022/02/14 05:10:15;;;;;;;9.15;2.80;;;0.50;99.90;;;;;;10377470;28;20886;-60
2022/02/14 05:15:17;;;;;;;5.05;2.83;;;0.50;99.90;;;;;;10379040;28;20648;-60
2022/02/14 05:20:19;;;;;;;5.72;2.53;;;0.50;99.90;;;;;;10383360;28;20651;-61
2022/02/14 05:25:21;;;;;;;7.90;2.60;;;0.50;99.90;;;;;;10380824;28;20041;-60
2022/02/14 05:30:23;;;;;;;11.68;3.35;;;0.50;99.90;;;;;;10385421;28;20469;-61
2022/02/14 05:35:25;;;;;;;5.88;2.58;;;0.50;99.90;;;;;;10375353;28;20049;-60
2022/02/14 05:40:28;;;;;;;5.93;2.80;;;0.40;99.90;;;;;;10378577;28;20181;-60
2022/02/14 05:45:29;;;;;;;9.68;3.75;;;0.40;99.90;;;;;;10371361;28;20053;-60
2022/02/14 05:50:31;;;;;;;13.60;3.55;;;0.40;99.90;;;;;;10383011;28;20664;-60
2022/02/14 05:55:33;;;;;;;11.75;3.53;;;0.40;99.90;;;;;;10379186;28;20431;-59
2022/02/14 06:00:34;;;;;;;6.03;2.97;;;0.40;99.90;;;;;;10378979;28;20046;-60
2022/02/14 06:05:36;;;;;;;10.63;3.25;;;0.40;99.90;;;;;;10376725;28;20041;-60
2022/02/14 06:10:38;;;;;;;12.48;4.05;;;0.50;99.90;;;;;;10379108;28;20484;-60
2022/02/14 06:15:39;;;;;;;8.00;2.85;;;0.50;99.90;;;;;;10383543;28;20145;-60
2022/02/14 06:20:41;;;;;;;6.07;3.00;;;0.50;99.90;;;;;;10387529;28;20361;-60
2022/02/14 06:25:43;;;;;;;7.70;3.20;;;0.60;99.90;;;;;;10379856;28;20110;-59
2022/02/14 06:30:46;;;;;;;7.55;3.28;;;0.70;99.90;;;;;;10386383;28;20045;-60
2022/02/14 06:35:48;;;;;;;14.88;3.70;;;0.90;99.90;;;;;;10386326;28;20053;-59
2022/02/14 06:40:49;;;;;;;6.50;3.08;;;1.00;99.90;;;;;;10384359;28;20570;-65
2022/02/14 06:45:51;;;;;;;6.63;3.28;;;1.20;99.90;;;;;;10389222;28;20045;-65
2022/02/14 06:50:53;;;;;;;17.60;3.15;;;1.30;99.90;;;;;;10383421;28;20049;-65
2022/02/14 06:55:55;;;;;;;6.85;2.85;;;1.50;99.90;;;;;;10383712;28;20053;-65
2022/02/14 07:00:57;;;;;;;11.60;3.28;;;1.70;99.90;;;;;;10386284;28;20445;-65
2022/02/14 07:05:58;;;;;;;9.77;4.32;;;1.90;99.90;;;;;;10391001;28;20152;-65
2022/02/14 07:11:01;;;;;;;20.83;7.95;;;2.00;99.90;;;;;;10383361;28;20057;-65
2022/02/14 07:16:02;;;;;;;18.38;7.43;;;2.20;99.90;;;;;;10382555;28;20041;-66
2022/02/14 07:21:04;;;;;;;17.33;7.10;;;2.30;99.90;;;;;;10369916;28;20511;-65
2022/02/14 07:26:06;;;;;;;19.08;6.90;;;2.50;99.90;;;;;;10390126;28;20057;-65
2022/02/14 07:31:07;;;;;;;18.60;6.72;;;2.60;99.90;;;;;;10385162;28;20045;-66
2022/02/14 07:36:10;;;;;;;18.00;8.10;;;2.80;99.90;;;;;;10382529;28;20099;-65
2022/02/14 07:41:11;;;;;;;38.00;17.30;;;2.90;99.90;;;;;;10391983;28;20099;-65
2022/02/14 07:46:13;;;;;;;33.88;13.43;;;3.00;99.90;;;;;;10380522;28;20425;-66
2022/02/14 07:51:16;;;;;;;24.63;10.15;;;3.10;99.90;;;;;;10383613;28;20706;-65
2022/02/14 07:56:21;;;;;;;19.65;9.98;;;3.20;99.90;;;;;;10383468;28;20064;-65
2022/02/14 08:01:23;;;;;;;15.23;7.15;;;3.40;99.90;;;;;;10380887;28;20054;-66
2022/02/14 08:06:25;;;;;;;15.75;5.75;;;3.50;99.90;;;;;;10382756;28;20578;-66
2022/02/14 08:11:27;;;;;;;10.38;4.07;;;3.70;99.90;;;;;;10379284;28;20084;-65
2022/02/14 08:16:30;;;;;;;16.35;5.22;;;3.80;99.90;;;;;;10382560;28;20504;-66
2022/02/14 08:21:34;;;;;;;15.55;5.85;;;4.00;99.90;;;;;;10375551;28;20057;-66
2022/02/14 08:26:38;;;;;;;13.68;5.63;;;4.20;99.90;;;;;;10381223;28;20131;-66
2022/02/14 08:31:40;;;;;;;7.53;3.83;;;4.40;99.90;;;;;;10378305;28;20079;-65
2022/02/14 08:36:43;;;;;;;13.80;3.03;;;4.60;99.10;;;;;;10381208;28;20128;-66
2022/02/14 08:41:46;;;;;;;9.05;2.85;;;4.70;96.30;;;;;;10378764;28;20051;-66
2022/02/14 08:46:48;;;;;;;5.70;2.75;;;5.00;96.30;;;;;;10385768;28;20046;-66
2022/02/14 08:51:50;;;;;;;9.65;2.22;;;5.20;95.90;;;;;;10382623;28;20110;-66
2022/02/14 08:56:56;;;;;;;9.23;2.50;;;5.50;95.20;;;;;;10375359;28;20136;-66
2022/02/14 09:02:00;;;;;;;5.75;2.70;;;5.70;94.00;;;;;;10380875;28;20115;-66
2022/02/14 09:07:03;;;;;;;8.93;3.28;;;5.80;94.50;;;;;;10383003;28;20114;-66
2022/02/14 09:12:07;;;;;;;4.78;2.33;;;6.00;94.10;;;;;;10378113;28;20047;-66
2022/02/14 09:17:09;;;;;;;16.92;4.90;;;6.20;93.20;;;;;;10379922;28;20072;-66
2022/02/14 09:22:12;;;;;;;6.85;2.70;;;6.30;90.70;;;;;;10380237;28;20053;-66
2022/02/14 09:27:14;;;;;;;4.43;1.90;;;6.50;88.50;;;;;;10382508;28;20409;-66
2022/02/14 09:32:21;;;;;;;3.90;1.50;;;6.70;87.50;;;;;;10383245;28;20134;-67
2022/02/14 09:37:24;;;;;;;3.92;1.80;;;7.00;85.40;;;;;;10379860;28;20053;-67
2022/02/14 09:42:25;;;;;;;4.18;1.88;;;7.20;82.50;;;;;;10379635;28;20057;-67
2022/02/14 09:47:27;;;;;;;7.28;2.42;;;7.30;83.00;;;;;;10382240;28;20561;-66
2022/02/14 09:52:30;;;;;;;5.38;2.00;;;7.50;82.60;;;;;;10378510;28;20069;-66
2022/02/14 09:57:32;;;;;;;4.78;2.03;;;7.70;82.40;;;;;;10396244;28;20443;-66
2022/02/14 10:02:35;;;;;;;6.22;1.75;;;7.90;82.20;;;;;;10378977;28;20125;-64
2022/02/14 10:07:38;;;;;;;8.98;2.58;;;8.00;81.30;;;;;;10379276;28;20135;-66
2022/02/14 10:12:48;;;;;;;10.85;3.05;;;8.00;80.90;;;;;;10375553;28;20050;-66
2022/02/14 10:17:52;;;;;;;5.25;1.92;;;8.10;80.90;;;;;;10380144;28;20053;-66
2022/02/14 10:23:00;;;;;;;4.50;1.48;;;8.30;80.70;;;;;;10375612;28;20123;-66
2022/02/14 10:28:25;;;;;;;5.28;1.83;;;8.60;80.10;;;;;;10380486;28;20138;-67
2022/02/14 10:33:50;;;;;;;8.77;1.85;;;8.90;79.40;;;;;;10380104;28;20053;-66
2022/02/14 10:38:52;;;;;;;2.78;1.40;;;9.20;78.60;;;;;;10372901;28;20467;-64
2022/02/14 10:44:10;;;;;;;6.05;1.55;;;9.40;78.40;;;;;;10375901;28;20399;-66
2022/02/14 10:49:13;;;;;;;6.32;1.25;;;9.70;77.70;;;;;;10376015;28;20069;-65
2022/02/14 10:54:34;;;;;;;;;;;9.90;76.40;;;;;;10383379;28;20052;-66
2022/02/14 10:59:36;;;;;;;6.72;1.45;;;10.00;76.00;;;;;;10383624;28;20013;-65
2022/02/14 11:04:39;;;;;;;13.60;2.42;;;10.20;75.70;;;;;;10376784;28;20045;-66
2022/02/14 11:09:43;;;;;;;7.63;1.70;;;10.30;75.20;;;;;;10387040;28;20122;-66
2022/02/14 11:14:57;;;;;;;8.70;1.83;;;10.20;75.60;;;;;;10379836;28;20639;-66
2022/02/14 11:20:06;;;;;;;8.30;2.42;;;10.10;76.20;;;;;;10385175;28;20041;-66
2022/02/14 11:25:23;;;;;;;8.57;2.13;;;9.90;76.80;;;;;;10390618;28;20060;-66
2022/02/14 11:30:27;;;;;;;4.73;2.00;;;9.80;77.40;;;;;;10385058;28;20054;-65
2022/02/14 11:35:29;;;;;;;6.57;1.90;;;9.80;77.90;;;;;;10386636;28;20140;-65
2022/02/14 11:40:31;;;;;;;4.65;1.52;;;9.90;78.20;;;;;;10391728;28;20094;-66
2022/02/14 11:45:33;;;;;;;4.40;1.55;;;9.80;78.40;;;;;;10382475;28;20096;-66
2022/02/14 11:50:41;;;;;;;3.95;1.50;;;10.00;78.80;;;;;;10386374;28;20080;-66
2022/02/14 11:55:43;;;;;;;6.78;2.40;;;10.00;79.20;;;;;;10382023;28;20041;-65
2022/02/14 12:00:45;;;;;;;11.25;1.65;;;10.00;79.90;;;;;;10382347;28;20076;-65
2022/02/14 12:05:49;;;;;;;4.38;1.77;;;10.00;80.30;;;;;;10380329;28;20492;-65
2022/02/14 12:10:56;;;;;;;3.55;1.90;;;10.10;79.90;;;;;;10379973;28;20340;-65
2022/02/14 12:21:07;;;;;;;8.50;2.05;;;10.30;79.80;;;;;;10378200;28;20049;-66
2022/02/14 12:26:30;;;;;;;9.07;2.10;;;10.30;80.00;;;;;;10377905;28;20128;-65
2022/02/14 12:31:32;;;;;;;5.07;1.92;;;10.30;80.10;;;;;;10380764;28;20052;-66
2022/02/14 12:36:34;;;;;;;7.60;2.08;;;10.30;80.50;;;;;;10381755;28;20045;-65
2022/02/14 12:41:35;;;;;;;4.30;1.40;;;10.30;81.10;;;;;;10380199;28;20076;-66
2022/02/14 12:46:37;;;;;;;8.35;2.05;;;10.30;81.00;;;;;;10385166;28;20115;-66
2022/02/14 12:51:39;;;;;;;6.28;2.08;;;10.40;81.00;;;;;;10379279;28;20337;-66
2022/02/14 12:56:43;;;;;;;6.05;1.92;;;10.50;81.60;;;;;;10381079;28;20555;-65
2022/02/14 13:01:46;;;;;;;4.90;1.77;;;10.60;81.10;;;;;;10377838;28;20046;-65
2022/02/14 13:06:49;;;;;;;7.00;1.60;;;10.80;80.60;;;;;;10383132;28;20049;-65
2022/02/14 13:11:53;;;;;;;13.25;4.40;;;10.80;81.00;;;;;;10384762;28;20129;-65
2022/02/14 13:16:56;;;;;;;6.28;2.25;;;10.80;82.30;;;;;;10382738;28;20072;-65
2022/02/14 13:21:58;;;;;;;2.45;1.40;;;10.60;83.00;;;;;;10385961;28;20038;-65
2022/02/14 13:27:04;;;;;;;6.65;1.63;;;10.50;84.30;;;;;;10381820;28;20072;-65
2022/02/14 13:32:08;;;;;;;7.38;2.30;;;10.40;85.80;;;;;;10377632;28;20115;-66
2022/02/14 13:37:16;;;;;;;9.82;2.15;;;10.40;87.20;;;;;;10380053;28;20111;-65
2022/02/14 13:42:22;;;;;;;7.28;1.50;;;10.30;88.10;;;;;;10378072;28;20061;-66
2022/02/14 13:47:24;;;;;;;7.55;1.83;;;10.40;89.10;;;;;;10385743;28;20053;-65
2022/02/14 13:52:28;;;;;;;8.00;2.00;;;10.50;89.40;;;;;;10380703;28;20092;-66
2022/02/14 13:57:29;;;;;;;5.32;2.20;;;10.60;89.20;;;;;;10381508;28;20076;-65
2022/02/14 14:02:31;;;;;;;7.13;1.67;;;10.70;89.40;;;;;;10378037;28;20064;-65
2022/02/14 14:07:49;;;;;;;7.45;1.88;;;10.80;90.10;;;;;;10376566;28;20038;-65
2022/02/14 14:12:53;;;;;;;8.02;1.95;;;10.90;89.80;;;;;;10377334;28;20084;-66
2022/02/14 14:17:55;;;;;;;8.15;2.17;;;11.00;89.60;;;;;;10376330;28;20063;-66
2022/02/14 14:22:57;;;;;;;9.85;2.40;;;11.10;90.00;;;;;;10375550;28;20103;-66
2022/02/14 14:27:59;;;;;;;12.93;1.80;;;11.10;90.60;;;;;;10382751;28;20143;-66
2022/02/14 14:33:01;;;;;;;5.20;1.45;;;11.20;90.90;;;;;;10382393;28;20052;-65
2022/02/14 14:38:03;;;;;;;7.80;2.40;;;11.30;91.30;;;;;;10385268;28;20053;-65
2022/02/14 14:43:05;;;;;;;7.88;1.75;;;11.40;91.20;;;;;;10387196;28;20084;-65
2022/02/14 14:48:13;;;;;;;4.90;1.38;;;11.50;91.40;;;;;;10382008;28;20044;-65
2022/02/14 14:53:15;;;;;;;2.40;1.00;;;11.50;90.90;;;;;;10385752;28;20069;-65
2022/02/14 14:58:16;;;;;;;5.30;2.25;;;11.40;90.60;;;;;;10390189;28;20060;-65
2022/02/14 15:03:18;;;;;;;12.13;2.15;;;11.60;90.80;;;;;;10386792;28;20045;-66
2022/02/14 15:08:20;;;;;;;3.50;1.10;;;11.70;90.60;;;;;;10383229;28;20131;-66
2022/02/14 15:13:21;;;;;;;2.60;1.17;;;11.80;90.80;;;;;;10386264;28;20080;-66
2022/02/14 15:18:23;;;;;;;8.75;2.30;;;11.80;90.70;;;;;;10385933;28;20053;-65
2022/02/14 15:23:25;;;;;;;3.53;1.00;;;11.80;91.00;;;;;;10387716;28;20061;-65
2022/02/14 15:28:26;;;;;;;3.97;1.20;;;11.70;90.60;;;;;;10388260;28;20057;-65
2022/02/14 15:33:28;;;;;;;2.97;1.08;;;11.50;91.10;;;;;;10386366;28;20137;-65
2022/02/14 15:38:30;;;;;;;3.92;1.05;;;11.40;91.90;;;;;;10389649;28;20049;-66
2022/02/14 15:43:33;;;;;;;5.25;1.10;;;11.30;92.50;;;;;;10378461;28;20045;-65
2022/02/14 15:48:37;;;;;;;4.15;0.80;;;11.20;93.00;;;;;;10379913;28;20142;-65
2022/02/14 15:53:39;;;;;;;3.47;1.50;;;11.10;93.90;;;;;;10383136;28;20053;-64
2022/02/14 15:58:41;;;;;;;4.18;0.70;;;11.10;94.60;;;;;;10387979;28;20132;-64
2022/02/14 16:03:43;;;;;;;1.55;0.70;;;11.00;95.60;;;;;;10383621;28;20116;-64
2022/02/14 16:08:44;;;;;;;5.85;1.38;;;10.90;96.10;;;;;;10390213;28;20052;-64
2022/02/14 16:13:49;;;;;;;4.65;1.70;;;10.80;97.00;;;;;;10390305;28;20139;-65
2022/02/14 16:18:52;;;;;;;11.25;5.25;;;10.70;98.00;;;;;;10381274;28;20076;-65
2022/02/14 16:23:54;;;;;;;13.00;6.63;;;10.60;99.10;;;;;;10383963;28;20042;-65
2022/02/14 16:28:56;;;;;;;4.57;2.63;;;10.50;99.90;;;;;;10379780;28;20068;-65
2022/02/14 16:34:01;;;;;;;4.03;1.08;;;10.30;99.90;;;;;;10380180;28;20048;-64
2022/02/14 16:39:03;;;;;;;4.30;1.60;;;10.20;99.90;;;;;;10384826;28;20086;-64
2022/02/14 16:44:07;;;;;;;6.03;1.85;;;10.10;99.90;;;;;;10388038;28;20114;-64
2022/02/14 16:49:10;;;;;;;3.13;0.77;;;10.00;99.90;;;;;;10377306;28;20056;-61
2022/02/14 16:54:11;;;;;;;1.70;0.82;;;10.00;99.90;;;;;;10380973;28;20484;-61
2022/02/14 16:59:13;;;;;;;2.63;0.57;;;10.00;99.90;;;;;;10382023;28;20100;-61
2022/02/14 17:04:14;;;;;;;2.05;0.52;;;10.00;99.90;;;;;;10377738;28;20450;-62
2022/02/14 17:09:16;;;;;;;4.95;1.27;;;10.00;99.90;;;;;;10381366;28;20565;-61
2022/02/14 17:14:18;;;;;;;1.08;0.63;;;9.90;99.90;;;;;;10382292;28;20100;-61
2022/02/14 17:19:19;;;;;;;2.47;0.50;;;9.90;99.90;;;;;;10379282;28;20079;-61
2022/02/14 17:24:21;;;;;;;2.25;0.60;;;9.90;97.40;;;;;;10379782;28;20057;-61
2022/02/14 17:29:23;;;;;;;2.25;0.40;;;9.90;97.30;;;;;;10377703;28;20516;-61
2022/02/14 17:34:25;;;;;;;4.93;0.60;;;9.90;98.10;;;;;;10379946;28;20112;-62
2022/02/14 17:39:27;;;;;;;2.35;0.68;;;9.80;99.10;;;;;;10375957;28;20115;-60
2022/02/14 17:44:29;;;;;;;1.25;0.30;;;9.80;98.90;;;;;;10378244;28;20061;-60
2022/02/14 17:49:32;;;;;;;3.85;0.50;;;9.70;98.50;;;;;;10380466;28;20049;-62
2022/02/14 17:54:34;;;;;;;2.33;1.10;;;9.70;98.10;;;;;;10378672;28;20156;-61
2022/02/14 17:59:35;;;;;;;1.65;0.35;;;9.80;96.60;;;;;;10373299;28;20142;-61
2022/02/14 18:04:37;;;;;;;4.32;0.32;;;9.80;95.80;;;;;;10375983;28;20157;-61
2022/02/14 18:09:39;;;;;;;1.33;0.30;;;9.70;95.40;;;;;;10382617;28;20037;-61
2022/02/14 18:14:42;;;;;;;2.28;0.40;;;9.70;94.50;;;;;;10384714;28;20065;-61
2022/02/14 18:19:44;;;;;;;3.58;0.50;;;9.70;93.20;;;;;;10394889;28;20142;-61
2022/02/14 18:24:46;;;;;;;0.95;0.20;;;9.60;92.10;;;;;;10388922;28;20476;-61
2022/02/14 18:29:48;;;;;;;2.70;0.20;;;9.60;91.20;;;;;;10386683;28;20614;-61
2022/02/14 18:34:50;;;;;;;2.55;0.40;;;9.50;90.60;;;;;;10384612;28;20042;-61
2022/02/14 18:39:52;;;;;;;3.13;0.30;;;9.50;90.80;;;;;;10387990;28;20198;-61
2022/02/14 18:45:16;;;;;;;1.80;0.63;;;9.20;91.20;;;;;;10384338;28;20483;-62
2022/02/14 18:50:18;;;;;;;0.95;0.68;;;9.30;91.60;;;;;;10385808;28;20053;-61
2022/02/14 18:55:20;;;;;;;4.30;0.93;;;9.30;91.80;;;;;;10386846;28;20640;-61
2022/02/14 19:00:21;;;;;;;1.80;0.60;;;9.20;91.70;;;;;;10389311;28;20065;-61
2022/02/14 19:05:24;;;;;;;2.80;0.40;;;9.20;91.90;;;;;;10386384;28;20183;-62
2022/02/14 19:10:26;;;;;;;3.55;0.47;;;9.00;92.10;;;;;;10382637;28;20045;-62
2022/02/14 19:15:28;;;;;;;1.85;0.47;;;9.00;92.10;;;;;;10380334;28;20148;-62
2022/02/14 19:20:31;;;;;;;3.53;0.68;;;8.90;92.40;;;;;;10379465;28;20057;-62
2022/02/14 19:25:35;;;;;;;6.88;0.75;;;8.90;93.00;;;;;;10382438;28;20045;-62
2022/02/14 19:30:37;;;;;;;3.53;0.50;;;8.80;93.30;;;;;;10383127;28;20448;-62
2022/02/14 19:35:39;;;;;;;1.83;0.60;;;8.70;93.70;;;;;;10381556;28;20057;-62
2022/02/14 19:40:41;;;;;;;2.28;0.68;;;8.60;94.30;;;;;;10380080;28;20138;-63
2022/02/14 19:45:43;;;;;;;1.58;0.82;;;8.50;94.60;;;;;;10381207;28;20071;-62
2022/02/14 19:50:44;;;;;;;5.28;0.50;;;8.40;94.90;;;;;;10384513;28;20480;-63
2022/02/14 19:55:46;;;;;;;3.35;0.68;;;8.40;95.10;;;;;;10380284;28;20049;-62
2022/02/14 20:00:49;;;;;;;3.22;0.60;;;8.30;95.80;;;;;;10383556;28;20136;-62
2022/02/14 20:05:51;;;;;;;2.95;0.70;;;8.30;97.60;;;;;;10380154;28;20053;-62
2022/02/14 20:10:53;;;;;;;2.35;0.88;;;8.30;99.90;;;;;;10385653;28;20131;-62
2022/02/14 20:15:55;;;;;;;3.38;0.90;;;8.20;99.90;;;;;;10377592;28;20143;-62
2022/02/14 20:20:57;;;;;;;1.85;0.80;;;8.10;99.90;;;;;;10382773;28;20048;-62
2022/02/14 20:26:00;;;;;;;2.35;0.82;;;8.10;99.90;;;;;;10383473;28;22367;-62
2022/02/14 20:31:02;;;;;;;2.70;1.33;;;8.00;99.90;;;;;;10384726;28;20054;-62
2022/02/14 20:36:05;;;;;;;1.95;0.90;;;8.00;99.90;;;;;;10380253;28;20061;-63
2022/02/14 20:41:07;;;;;;;2.47;1.25;;;7.80;99.90;;;;;;10384789;28;20076;-62
2022/02/14 20:46:08;;;;;;;5.55;1.10;;;7.80;99.90;;;;;;10385375;28;20088;-62
2022/02/14 20:51:10;;;;;;;7.07;1.75;;;7.80;99.90;;;;;;10376556;28;20092;-61
2022/02/14 20:56:12;;;;;;;4.18;1.10;;;7.60;99.90;;;;;;10384615;28;20076;-62
2022/02/14 21:01:14;;;;;;;5.47;1.50;;;7.60;99.90;;;;;;10380222;28;20115;-62
2022/02/14 21:06:16;;;;;;;3.28;1.00;;;7.60;99.90;;;;;;10384820;28;20076;-62
2022/02/14 21:11:22;;;;;;;4.15;1.08;;;7.60;99.90;;;;;;10382245;28;20077;-63
2022/02/14 21:16:24;;;;;;;2.13;0.98;;;7.60;99.90;;;;;;10386317;28;20049;-62
2022/02/14 21:21:26;;;;;;;1.45;0.82;;;7.50;99.90;;;;;;10379740;28;20127;-62
2022/02/14 21:26:28;;;;;;;2.97;1.05;;;7.40;99.90;;;;;;10377838;28;20146;-62
2022/02/14 21:31:31;;;;;;;3.05;1.17;;;7.40;99.90;;;;;;10380265;28;20179;-63
2022/02/14 21:36:33;;;;;;;2.45;1.08;;;7.40;99.90;;;;;;10376915;28;20072;-63
2022/02/14 21:41:34;;;;;;;3.75;1.30;;;7.30;99.90;;;;;;10380688;28;20095;-63
2022/02/14 21:46:36;;;;;;;3.20;1.17;;;7.30;99.90;;;;;;10382394;28;20156;-62
2022/02/14 21:51:38;;;;;;;8.65;1.55;;;7.20;99.90;;;;;;10380202;28;20072;-63
2022/02/14 21:56:40;;;;;;;5.20;1.10;;;7.20;99.90;;;;;;10379032;28;20042;-62
2022/02/14 22:01:41;;;;;;;3.78;0.90;;;7.20;99.90;;;;;;10381666;28;20069;-63
2022/02/14 22:12:04;;;;;;;3.42;1.95;;;7.00;99.90;;;;;;10375243;28;20412;-64
2022/02/14 22:17:06;;;;;;;5.10;2.10;;;7.00;99.90;;;;;;10379959;28;20558;-63
2022/02/14 22:22:08;;;;;;;4.32;1.95;;;6.90;99.90;;;;;;10379203;28;20550;-63
2022/02/14 22:27:10;;;;;;;4.65;2.35;;;6.80;99.90;;;;;;10384695;28;20559;-62
2022/02/14 22:32:12;;;;;;;6.40;2.50;;;6.80;99.90;;;;;;10382326;28;20504;-62
2022/02/14 22:37:16;;;;;;;5.65;2.65;;;6.70;99.90;;;;;;10376387;28;20479;-64
2022/02/14 22:42:18;;;;;;;8.57;2.55;;;6.60;99.90;;;;;;10378820;28;20207;-63
2022/02/14 22:47:21;;;;;;;6.75;2.55;;;6.60;99.90;;;;;;10384979;28;20108;-63
2022/02/14 22:52:23;;;;;;;4.45;2.20;;;6.50;99.90;;;;;;10387695;28;20098;-62
2022/02/14 22:57:24;;;;;;;7.70;2.65;;;6.40;99.90;;;;;;10389539;28;20137;-62
2022/02/14 23:18:28;;;;;;;5.53;1.60;;;6.30;99.90;;;;;;10388382;28;20077;-62
2022/02/14 23:23:30;;;;;;;6.22;1.52;;;6.30;99.90;;;;;;10385627;28;20053;-63
2022/02/14 23:28:32;;;;;;;2.95;1.15;;;6.20;99.90;;;;;;10391605;28;20055;-63
2022/02/14 23:33:33;;;;;;;5.55;1.60;;;6.20;99.90;;;;;;10391235;28;20073;-63
2022/02/14 23:38:35;;;;;;;5.10;1.35;;;6.20;99.90;;;;;;10388577;28;20108;-63
2022/02/14 23:43:37;;;;;;;5.20;1.60;;;6.10;99.90;;;;;;10384224;28;20127;-63
2022/02/14 23:48:39;;;;;;;2.90;1.08;;;6.10;99.90;;;;;;10384729;28;20046;-62
2022/02/14 23:53:40;;;;;;;5.97;1.00;;;6.00;99.90;;;;;;10379336;28;20041;-62
2022/02/14 23:58:42;;;;;;;7.57;1.42;;;5.90;99.90;;;;;;10390256;28;20079;-62
